createdAt,value
2024-03-16T00:02:04.743Z,98602.81
2024-03-16T00:04:31.323Z,98606.31
2024-03-16T00:06:59.245Z,98607.97
2024-03-16T00:09:26.029Z,98614.97
2024-03-16T00:11:52.820Z,98610.66
2024-03-16T00:14:19.310Z,98606.81
2024-03-16T00:16:45.812Z,98610.28
2024-03-16T00:19:12.364Z,98598.88
2024-03-16T00:21:38.914Z,98593.81
2024-03-16T00:24:05.619Z,98600.03
2024-03-16T00:26:32.076Z,98597.59
2024-03-16T00:28:59.497Z,98592.97
2024-03-16T00:31:26.000Z,98592.06
2024-03-16T00:33:52.600Z,98592.31
2024-03-16T00:36:19.070Z,98586.84
2024-03-16T00:38:50.741Z,98592.81
2024-03-16T00:41:20.898Z,98597.69
2024-03-16T00:43:47.526Z,98604.16
2024-03-16T00:46:14.334Z,98590.22
2024-03-16T00:48:40.945Z,98596.47
2024-03-16T00:51:07.502Z,98590.28
2024-03-16T00:53:33.985Z,98593.38
2024-03-16T00:56:00.946Z,98584.09
2024-03-16T00:58:28.584Z,98577.59
2024-03-16T01:00:55.224Z,98573.66
2024-03-16T01:03:21.876Z,98581.22
2024-03-16T01:05:52.237Z,98576.97
2024-03-16T01:08:18.808Z,98576.53
2024-03-16T01:10:45.340Z,98584.91
2024-03-16T01:13:11.880Z,98586.81
2024-03-16T01:15:38.456Z,98596.47
2024-03-16T01:18:05.025Z,98589.63
2024-03-16T01:20:31.594Z,98594.56
2024-03-16T01:22:59.903Z,98592.34
2024-03-16T01:25:26.407Z,98583.63
2024-03-16T01:27:52.899Z,98588.03
2024-03-16T01:30:22.639Z,98589.56
2024-03-16T01:32:49.148Z,98589.59
2024-03-16T01:35:15.661Z,98585.50
2024-03-16T01:37:42.297Z,98593.06
2024-03-16T01:40:09.386Z,98585.50
2024-03-16T01:42:36.235Z,98589.25
2024-03-16T01:45:08.300Z,98608.34
2024-03-16T01:47:35.020Z,98611.53
2024-03-16T01:50:01.622Z,98625.63
2024-03-16T01:52:28.235Z,98630.84
2024-03-16T01:54:54.865Z,98607.25
2024-03-16T01:57:21.372Z,98605.22
2024-03-16T01:59:50.074Z,98593.22
2024-03-16T02:02:37.948Z,98586.34
2024-03-16T02:05:05.468Z,98583.00
2024-03-16T02:07:35.908Z,98578.34
2024-03-16T02:10:05.908Z,98570.22
2024-03-16T02:12:32.761Z,98567.53
2024-03-16T02:14:59.326Z,98576.19
2024-03-16T02:17:25.828Z,98582.63
2024-03-16T02:19:52.758Z,98587.75
2024-03-16T02:22:20.242Z,98586.59
2024-03-16T02:24:49.837Z,98587.75
2024-03-16T02:27:17.473Z,98581.97
2024-03-16T02:29:43.960Z,98592.16
2024-03-16T02:32:12.050Z,98595.75
2024-03-16T02:34:38.773Z,98587.31
2024-03-16T02:37:06.244Z,98591.91
2024-03-16T02:39:33.743Z,98601.34
2024-03-16T02:42:01.120Z,98597.22
2024-03-16T02:44:27.786Z,98599.78
2024-03-16T02:46:54.667Z,98595.38
2024-03-16T02:49:22.320Z,98596.94
2024-03-16T02:51:51.749Z,98595.63
2024-03-16T02:54:19.159Z,98605.97
2024-03-16T02:56:46.494Z,98606.19
2024-03-16T02:59:13.753Z,98617.13
2024-03-16T03:01:40.624Z,98609.50
2024-03-16T03:04:08.718Z,98617.13
2024-03-16T03:06:35.414Z,98613.00
2024-03-16T03:09:02.037Z,98611.16
2024-03-16T03:11:28.594Z,98612.91
2024-03-16T03:13:56.032Z,98615.31
2024-03-16T03:16:22.534Z,98622.66
2024-03-16T03:18:49.862Z,98622.09
2024-03-16T03:21:16.566Z,98621.84
2024-03-16T03:23:43.142Z,98625.09
2024-03-16T03:26:10.710Z,98631.81
2024-03-16T03:28:37.338Z,98636.69
2024-03-16T03:31:09.887Z,98637.75
2024-03-16T03:33:36.438Z,98630.16
2024-03-16T03:36:06.918Z,98631.34
2024-03-16T03:38:34.005Z,98630.41
2024-03-16T03:41:01.111Z,98642.84
2024-03-16T03:43:27.721Z,98634.41
2024-03-16T03:45:54.419Z,98639.81
2024-03-16T03:48:24.259Z,98642.06
2024-03-16T03:50:51.265Z,98641.22
2024-03-16T03:53:18.425Z,98647.78
2024-03-16T03:55:45.973Z,98647.94
2024-03-16T03:58:12.737Z,98647.69
2024-03-16T04:00:39.681Z,98645.75
2024-03-16T04:03:07.907Z,98653.22
2024-03-16T04:05:34.594Z,98646.94
2024-03-16T04:08:01.906Z,98654.56
2024-03-16T04:10:28.600Z,98656.19
2024-03-16T04:12:55.351Z,98657.56
2024-03-16T04:15:21.925Z,98651.19
2024-03-16T04:17:48.545Z,98657.22
2024-03-16T04:20:15.033Z,98660.19
2024-03-16T04:22:44.780Z,98655.25
2024-03-16T04:25:15.297Z,98653.81
2024-03-16T04:27:44.938Z,98646.56
2024-03-16T04:30:12.703Z,98656.06
2024-03-16T04:32:39.233Z,98652.34
2024-03-16T04:35:06.738Z,98646.13
2024-03-16T04:37:36.726Z,98646.34
2024-03-16T04:40:05.711Z,98646.78
2024-03-16T04:42:32.735Z,98648.47
2024-03-16T04:44:59.399Z,98652.81
2024-03-16T04:47:25.857Z,98651.75
2024-03-16T04:49:52.393Z,98655.03
2024-03-16T04:52:18.785Z,98649.59
2024-03-16T04:54:46.318Z,98654.94
2024-03-16T04:57:13.582Z,98655.19
2024-03-16T04:59:40.847Z,98649.03
2024-03-16T05:02:07.397Z,98655.50
2024-03-16T05:04:33.991Z,98656.97
2024-03-16T05:07:01.374Z,98657.22
2024-03-16T05:09:28.345Z,98656.13
2024-03-16T05:11:54.969Z,98649.16
2024-03-16T05:14:21.547Z,98649.03
2024-03-16T05:16:47.992Z,98645.78
2024-03-16T05:19:14.504Z,98653.00
2024-03-16T05:21:42.182Z,98643.75
2024-03-16T05:24:08.846Z,98638.50
2024-03-16T05:26:35.718Z,98657.41
2024-03-16T05:29:02.283Z,98675.28
2024-03-16T05:31:28.700Z,98679.66
2024-03-16T05:33:55.220Z,98678.06
2024-03-16T05:36:21.674Z,98679.13
2024-03-16T05:38:48.169Z,98693.19
2024-03-16T05:41:14.815Z,98694.28
2024-03-16T05:43:44.256Z,98695.91
2024-03-16T05:46:13.622Z,98699.06
2024-03-16T05:48:40.234Z,98694.25
2024-03-16T05:51:06.856Z,98697.38
2024-03-16T05:53:33.340Z,98705.50
2024-03-16T05:55:59.834Z,98710.06
2024-03-16T05:58:26.885Z,98709.69
2024-03-16T06:00:53.404Z,98728.13
2024-03-16T06:03:19.941Z,98731.91
2024-03-16T06:05:47.073Z,98738.53
2024-03-16T06:08:15.177Z,98734.22
2024-03-16T06:10:42.621Z,98738.22
2024-03-16T06:13:11.770Z,98745.84
2024-03-16T06:15:40.569Z,98746.81
2024-03-16T06:18:07.715Z,98757.06
2024-03-16T06:20:34.656Z,98757.06
2024-03-16T06:23:01.198Z,98760.06
2024-03-16T06:25:30.426Z,98760.84
2024-03-16T06:28:06.676Z,98764.66
2024-03-16T06:30:33.573Z,98762.50
2024-03-16T06:33:12.595Z,98766.16
2024-03-16T06:35:42.713Z,98765.63
2024-03-16T06:38:09.653Z,98780.91
2024-03-16T06:40:36.398Z,98778.09
2024-03-16T06:43:03.461Z,98797.75
2024-03-16T06:45:30.074Z,98803.66
2024-03-16T06:47:56.634Z,98810.22
2024-03-16T06:50:23.332Z,98807.09
2024-03-16T06:52:49.960Z,98818.53
2024-03-16T06:55:18.982Z,98815.84
2024-03-16T06:57:46.190Z,98818.19
2024-03-16T07:00:13.422Z,98822.50
2024-03-16T07:02:39.932Z,98822.50
2024-03-16T07:05:08.733Z,98822.44
2024-03-16T07:07:35.239Z,98827.78
2024-03-16T07:10:02.149Z,98830.72
2024-03-16T07:12:28.800Z,98837.00
2024-03-16T07:14:55.325Z,98833.69
2024-03-16T07:17:21.896Z,98839.38
2024-03-16T07:19:48.362Z,98849.59
2024-03-16T07:22:15.008Z,98854.25
2024-03-16T07:24:41.560Z,98856.72
2024-03-16T07:27:08.546Z,98860.13
2024-03-16T07:29:35.097Z,98858.09
2024-03-16T07:32:01.813Z,98875.84
2024-03-16T07:34:28.311Z,98875.25
2024-03-16T07:36:54.935Z,98876.34
2024-03-16T07:39:22.333Z,98872.09
2024-03-16T07:41:50.605Z,98871.34
2024-03-16T07:44:18.780Z,98874.25
2024-03-16T07:46:48.010Z,98866.31
2024-03-16T07:49:14.512Z,98872.38
2024-03-16T07:51:41.086Z,98870.66
2024-03-16T07:54:13.131Z,98880.00
2024-03-16T07:56:40.537Z,98863.28
2024-03-16T07:59:08.477Z,98867.56
2024-03-16T08:01:34.969Z,98879.19
2024-03-16T08:04:02.419Z,98878.00
2024-03-16T08:06:29.554Z,98879.25
2024-03-16T08:08:56.410Z,98888.88
2024-03-16T08:11:22.925Z,98891.34
2024-03-16T08:13:49.447Z,98902.13
2024-03-16T08:16:16.609Z,98901.13
2024-03-16T08:18:45.698Z,98910.03
2024-03-16T08:21:15.582Z,98900.44
2024-03-16T08:23:42.441Z,98902.28
2024-03-16T08:26:10.802Z,98909.16
2024-03-16T08:28:37.932Z,98906.66
2024-03-16T08:31:06.570Z,98909.75
2024-03-16T08:33:33.621Z,98911.31
2024-03-16T08:36:00.771Z,98909.59
2024-03-16T08:38:28.319Z,98918.34
2024-03-16T08:40:56.517Z,98916.03
2024-03-16T08:43:23.352Z,98915.91
2024-03-16T08:45:50.889Z,98912.56
2024-03-16T08:48:17.591Z,98910.53
2024-03-16T08:50:44.152Z,98914.72
2024-03-16T08:53:11.480Z,98920.75
2024-03-16T08:55:38.547Z,98929.63
2024-03-16T08:58:05.213Z,98926.34
2024-03-16T09:00:31.791Z,98927.19
2024-03-16T09:02:58.510Z,98935.84
2024-03-16T09:05:26.864Z,98935.09
2024-03-16T09:07:53.970Z,98935.00
2024-03-16T09:10:21.812Z,98934.31
2024-03-16T09:12:59.487Z,98944.50
2024-03-16T09:15:27.776Z,98944.25
2024-03-16T09:17:58.117Z,98953.81
2024-03-16T09:20:25.142Z,98957.78
2024-03-16T09:22:54.032Z,98950.44
2024-03-16T09:25:24.194Z,98951.31
2024-03-16T09:27:51.247Z,98961.28
2024-03-16T09:30:19.544Z,98971.03
2024-03-16T09:32:46.468Z,98963.94
2024-03-16T09:35:13.471Z,98968.78
2024-03-16T09:37:40.400Z,98963.25
2024-03-16T09:40:15.296Z,98965.69
2024-03-16T09:42:42.691Z,98961.75
